sensor_id;sensor_type;location;lat;lon;timestamp;P1;durP1;ratioP1;P2;durP2;ratioP2
9860;SDS011;4969;52.304;4.968;2023-06-10T00:01:12;5.88;;;4.38;;
9860;SDS011;4969;52.304;4.968;2023-06-10T00:03:40;6.57;;;4.72;;
9860;SDS011;4969;52.304;4.968;2023-06-10T00:06:08;7.43;;;4.47;;
9860;SDS011;4969;52.304;4.968;2023-06-10T00:08:35;4.47;;;4.07;;
9860;SDS011;4969;52.304;4.968;2023-06-10T00:11:02;5.93;;;4.43;;
9860;SDS011;4969;52.304;4.968;2023-06-10T00:13:29;4.80;;;4.40;;
9860;SDS011;4969;52.304;4.968;2023-06-10T00:15:55;6.35;;;4.75;;
9860;SDS011;4969;52.304;4.968;2023-06-10T00:18:22;5.95;;;4.38;;
9860;SDS011;4969;52.304;4.968;2023-06-10T00:20:50;6.22;;;4.28;;
9860;SDS011;4969;52.304;4.968;2023-06-10T00:23:18;6.25;;;4.65;;
9860;SDS011;4969;52.304;4.968;2023-06-10T00:25:44;4.47;;;4.07;;
9860;SDS011;4969;52.304;4.968;2023-06-10T00:28:11;6.88;;;4.38;;
9860;SDS011;4969;52.304;4.968;2023-06-10T00:30:38;7.63;;;4.95;;
9860;SDS011;4969;52.304;4.968;2023-06-10T00:33:05;7.07;;;4.07;;
9860;SDS011;4969;52.304;4.968;2023-06-10T00:35:31;5.00;;;4.50;;
9860;SDS011;4969;52.304;4.968;2023-06-10T00:37:59;6.32;;;4.65;;
9860;SDS011;4969;52.304;4.968;2023-06-10T00:40:26;4.47;;;4.05;;
9860;SDS011;4969;52.304;4.968;2023-06-10T00:42:52;4.60;;;4.20;;
9860;SDS011;4969;52.304;4.968;2023-06-10T00:45:19;6.50;;;4.43;;
9860;SDS011;4969;52.304;4.968;2023-06-10T00:47:45;4.75;;;4.28;;
9860;SDS011;4969;52.304;4.968;2023-06-10T00:50:12;4.88;;;4.35;;
9860;SDS011;4969;52.304;4.968;2023-06-10T00:52:38;8.68;;;4.47;;
9860;SDS011;4969;52.304;4.968;2023-06-10T00:55:07;5.72;;;4.30;;
9860;SDS011;4969;52.304;4.968;2023-06-10T00:57:33;5.20;;;4.25;;
9860;SDS011;4969;52.304;4.968;2023-06-10T01:00:00;5.22;;;4.20;;
9860;SDS011;4969;52.304;4.968;2023-06-10T01:02:28;5.60;;;4.90;;
9860;SDS011;4969;52.304;4.968;2023-06-10T01:04:55;7.47;;;4.40;;
9860;SDS011;4969;52.304;4.968;2023-06-10T01:07:23;7.50;;;4.10;;
9860;SDS011;4969;52.304;4.968;2023-06-10T01:09:54;5.38;;;4.43;;
9860;SDS011;4969;52.304;4.968;2023-06-10T01:12:29;4.53;;;4.13;;
9860;SDS011;4969;52.304;4.968;2023-06-10T01:15:00;5.53;;;4.38;;
9860;SDS011;4969;52.304;4.968;2023-06-10T01:17:29;5.22;;;4.30;;
9860;SDS011;4969;52.304;4.968;2023-06-10T01:19:56;4.13;;;3.83;;
9860;SDS011;4969;52.304;4.968;2023-06-10T01:22:26;4.97;;;4.40;;
9860;SDS011;4969;52.304;4.968;2023-06-10T01:24:53;11.45;;;4.57;;
9860;SDS011;4969;52.304;4.968;2023-06-10T01:27:23;5.18;;;4.03;;
9860;SDS011;4969;52.304;4.968;2023-06-10T01:29:57;5.88;;;4.63;;
9860;SDS011;4969;52.304;4.968;2023-06-10T01:32:29;5.45;;;4.40;;
9860;SDS011;4969;52.304;4.968;2023-06-10T01:35:01;5.93;;;4.50;;
9860;SDS011;4969;52.304;4.968;2023-06-10T01:37:30;7.28;;;4.53;;
9860;SDS011;4969;52.304;4.968;2023-06-10T01:39:58;5.15;;;4.22;;
9860;SDS011;4969;52.304;4.968;2023-06-10T01:42:26;5.93;;;4.65;;
9860;SDS011;4969;52.304;4.968;2023-06-10T01:44:54;5.00;;;4.30;;
9860;SDS011;4969;52.304;4.968;2023-06-10T01:47:21;6.43;;;4.32;;
9860;SDS011;4969;52.304;4.968;2023-06-10T01:49:47;4.68;;;4.28;;
9860;SDS011;4969;52.304;4.968;2023-06-10T01:52:14;6.20;;;4.70;;
9860;SDS011;4969;52.304;4.968;2023-06-10T01:54:42;8.82;;;5.00;;
9860;SDS011;4969;52.304;4.968;2023-06-10T01:57:08;6.68;;;5.07;;
9860;SDS011;4969;52.304;4.968;2023-06-10T01:59:35;5.18;;;4.60;;
9860;SDS011;4969;52.304;4.968;2023-06-10T02:02:03;5.10;;;4.30;;
9860;SDS011;4969;52.304;4.968;2023-06-10T02:04:30;7.88;;;4.95;;
9860;SDS011;4969;52.304;4.968;2023-06-10T02:06:56;6.75;;;4.72;;
9860;SDS011;4969;52.304;4.968;2023-06-10T02:09:23;5.68;;;4.82;;
9860;SDS011;4969;52.304;4.968;2023-06-10T02:11:51;5.28;;;4.57;;
9860;SDS011;4969;52.304;4.968;2023-06-10T02:14:17;5.78;;;4.55;;
9860;SDS011;4969;52.304;4.968;2023-06-10T02:16:44;5.70;;;4.70;;
9860;SDS011;4969;52.304;4.968;2023-06-10T02:19:11;7.05;;;4.88;;
9860;SDS011;4969;52.304;4.968;2023-06-10T02:21:38;5.05;;;4.45;;
9860;SDS011;4969;52.304;4.968;2023-06-10T02:24:05;5.97;;;5.20;;
9860;SDS011;4969;52.304;4.968;2023-06-10T02:26:32;5.70;;;4.80;;
9860;SDS011;4969;52.304;4.968;2023-06-10T02:29:00;6.22;;;4.80;;
9860;SDS011;4969;52.304;4.968;2023-06-10T02:31:27;5.75;;;4.70;;
9860;SDS011;4969;52.304;4.968;2023-06-10T02:33:53;7.63;;;5.30;;
9860;SDS011;4969;52.304;4.968;2023-06-10T02:36:21;6.57;;;4.70;;
9860;SDS011;4969;52.304;4.968;2023-06-10T02:38:49;7.78;;;5.07;;
9860;SDS011;4969;52.304;4.968;2023-06-10T02:41:15;6.75;;;5.28;;
9860;SDS011;4969;52.304;4.968;2023-06-10T02:43:42;5.68;;;5.10;;
9860;SDS011;4969;52.304;4.968;2023-06-10T02:46:10;6.22;;;5.68;;
9860;SDS011;4969;52.304;4.968;2023-06-10T02:48:40;8.90;;;5.15;;
9860;SDS011;4969;52.304;4.968;2023-06-10T02:51:08;6.78;;;5.30;;
9860;SDS011;4969;52.304;4.968;2023-06-10T02:53:35;6.07;;;4.75;;
9860;SDS011;4969;52.304;4.968;2023-06-10T02:56:02;6.63;;;5.22;;
9860;SDS011;4969;52.304;4.968;2023-06-10T02:58:29;7.85;;;5.45;;
9860;SDS011;4969;52.304;4.968;2023-06-10T03:00:55;8.93;;;5.10;;
9860;SDS011;4969;52.304;4.968;2023-06-10T03:03:24;6.38;;;5.20;;
9860;SDS011;4969;52.304;4.968;2023-06-10T03:05:52;6.97;;;5.30;;
9860;SDS011;4969;52.304;4.968;2023-06-10T03:08:19;6.95;;;5.45;;
9860;SDS011;4969;52.304;4.968;2023-06-10T03:10:45;7.68;;;5.38;;
9860;SDS011;4969;52.304;4.968;2023-06-10T03:13:12;5.30;;;4.80;;
9860;SDS011;4969;52.304;4.968;2023-06-10T03:15:39;7.60;;;5.20;;
9860;SDS011;4969;52.304;4.968;2023-06-10T03:18:06;6.53;;;4.85;;
9860;SDS011;4969;52.304;4.968;2023-06-10T03:20:34;7.57;;;5.18;;
9860;SDS011;4969;52.304;4.968;2023-06-10T03:23:03;6.15;;;5.35;;
9860;SDS011;4969;52.304;4.968;2023-06-10T03:25:31;8.18;;;5.53;;
9860;SDS011;4969;52.304;4.968;2023-06-10T03:27:57;6.40;;;4.90;;
9860;SDS011;4969;52.304;4.968;2023-06-10T03:30:24;6.95;;;5.00;;
9860;SDS011;4969;52.304;4.968;2023-06-10T03:32:51;6.85;;;5.18;;
9860;SDS011;4969;52.304;4.968;2023-06-10T03:35:17;7.13;;;5.10;;
9860;SDS011;4969;52.304;4.968;2023-06-10T03:37:45;5.57;;;5.07;;
9860;SDS011;4969;52.304;4.968;2023-06-10T03:40:12;5.90;;;5.22;;
9860;SDS011;4969;52.304;4.968;2023-06-10T03:42:39;8.30;;;5.40;;
9860;SDS011;4969;52.304;4.968;2023-06-10T03:45:06;7.15;;;5.18;;
9860;SDS011;4969;52.304;4.968;2023-06-10T03:47:34;6.85;;;5.45;;
9860;SDS011;4969;52.304;4.968;2023-06-10T03:50:01;7.38;;;5.47;;
9860;SDS011;4969;52.304;4.968;2023-06-10T03:52:28;8.05;;;5.70;;
9860;SDS011;4969;52.304;4.968;2023-06-10T03:54:56;6.18;;;5.00;;
9860;SDS011;4969;52.304;4.968;2023-06-10T03:57:23;6.00;;;5.32;;
9860;SDS011;4969;52.304;4.968;2023-06-10T03:59:49;5.93;;;4.65;;
9860;SDS011;4969;52.304;4.968;2023-06-10T04:02:16;7.00;;;4.95;;
9860;SDS011;4969;52.304;4.968;2023-06-10T04:04:42;9.63;;;5.53;;
9860;SDS011;4969;52.304;4.968;2023-06-10T04:07:09;6.22;;;5.18;;
9860;SDS011;4969;52.304;4.968;2023-06-10T04:09:37;8.35;;;5.72;;
9860;SDS011;4969;52.304;4.968;2023-06-10T04:12:05;6.82;;;5.57;;
9860;SDS011;4969;52.304;4.968;2023-06-10T04:14:34;6.15;;;5.55;;
9860;SDS011;4969;52.304;4.968;2023-06-10T04:17:01;6.68;;;4.97;;
9860;SDS011;4969;52.304;4.968;2023-06-10T04:19:28;8.55;;;5.63;;
9860;SDS011;4969;52.304;4.968;2023-06-10T04:21:56;7.07;;;5.30;;
9860;SDS011;4969;52.304;4.968;2023-06-10T04:24:22;8.68;;;6.10;;
9860;SDS011;4969;52.304;4.968;2023-06-10T04:26:49;6.70;;;4.38;;
9860;SDS011;4969;52.304;4.968;2023-06-10T04:29:17;6.75;;;5.22;;
9860;SDS011;4969;52.304;4.968;2023-06-10T04:31:43;8.27;;;5.60;;
9860;SDS011;4969;52.304;4.968;2023-06-10T04:34:11;7.45;;;5.25;;
9860;SDS011;4969;52.304;4.968;2023-06-10T04:36:38;8.75;;;5.53;;
9860;SDS011;4969;52.304;4.968;2023-06-10T04:39:05;6.90;;;5.15;;
9860;SDS011;4969;52.304;4.968;2023-06-10T04:41:31;7.88;;;5.70;;
9860;SDS011;4969;52.304;4.968;2023-06-10T04:43:58;6.70;;;5.28;;
9860;SDS011;4969;52.304;4.968;2023-06-10T04:46:26;8.30;;;5.60;;
9860;SDS011;4969;52.304;4.968;2023-06-10T04:48:52;6.07;;;5.50;;
9860;SDS011;4969;52.304;4.968;2023-06-10T04:51:20;6.50;;;5.55;;
9860;SDS011;4969;52.304;4.968;2023-06-10T04:53:46;6.93;;;5.80;;
9860;SDS011;4969;52.304;4.968;2023-06-10T04:56:13;6.28;;;5.10;;
9860;SDS011;4969;52.304;4.968;2023-06-10T04:58:41;8.07;;;5.57;;
9860;SDS011;4969;52.304;4.968;2023-06-10T05:01:07;5.97;;;5.22;;
9860;SDS011;4969;52.304;4.968;2023-06-10T05:03:35;7.28;;;5.53;;
9860;SDS011;4969;52.304;4.968;2023-06-10T05:06:02;8.85;;;5.60;;
9860;SDS011;4969;52.304;4.968;2023-06-10T05:08:29;7.00;;;5.72;;
9860;SDS011;4969;52.304;4.968;2023-06-10T05:10:55;8.95;;;5.88;;
9860;SDS011;4969;52.304;4.968;2023-06-10T05:13:23;6.90;;;5.80;;
9860;SDS011;4969;52.304;4.968;2023-06-10T05:15:50;6.85;;;5.97;;
9860;SDS011;4969;52.304;4.968;2023-06-10T05:18:16;5.93;;;5.32;;
9860;SDS011;4969;52.304;4.968;2023-06-10T05:20:44;6.07;;;5.47;;
9860;SDS011;4969;52.304;4.968;2023-06-10T05:23:11;7.55;;;6.00;;
9860;SDS011;4969;52.304;4.968;2023-06-10T05:25:38;7.43;;;6.05;;
9860;SDS011;4969;52.304;4.968;2023-06-10T05:28:05;7.68;;;5.55;;
9860;SDS011;4969;52.304;4.968;2023-06-10T05:30:34;6.70;;;5.78;;
9860;SDS011;4969;52.304;4.968;2023-06-10T05:33:01;10.48;;;5.97;;
9860;SDS011;4969;52.304;4.968;2023-06-10T05:35:29;7.10;;;5.53;;
9860;SDS011;4969;52.304;4.968;2023-06-10T05:37:57;5.75;;;5.25;;
9860;SDS011;4969;52.304;4.968;2023-06-10T05:40:23;7.70;;;5.55;;
9860;SDS011;4969;52.304;4.968;2023-06-10T05:42:50;8.43;;;5.78;;
9860;SDS011;4969;52.304;4.968;2023-06-10T05:45:17;7.60;;;6.28;;
9860;SDS011;4969;52.304;4.968;2023-06-10T05:47:43;8.65;;;5.03;;
9860;SDS011;4969;52.304;4.968;2023-06-10T05:50:10;6.05;;;5.03;;
9860;SDS011;4969;52.304;4.968;2023-06-10T05:52:36;8.30;;;5.25;;
9860;SDS011;4969;52.304;4.968;2023-06-10T05:55:07;6.20;;;5.60;;
9860;SDS011;4969;52.304;4.968;2023-06-10T05:57:34;5.78;;;5.28;;
9860;SDS011;4969;52.304;4.968;2023-06-10T06:00:01;6.82;;;5.60;;
9860;SDS011;4969;52.304;4.968;2023-06-10T06:02:27;6.85;;;5.60;;
9860;SDS011;4969;52.304;4.968;2023-06-10T06:04:54;6.00;;;5.43;;
9860;SDS011;4969;52.304;4.968;2023-06-10T06:07:20;9.00;;;5.45;;
9860;SDS011;4969;52.304;4.968;2023-06-10T06:09:47;6.90;;;5.45;;
9860;SDS011;4969;52.304;4.968;2023-06-10T06:12:15;5.95;;;5.45;;
9860;SDS011;4969;52.304;4.968;2023-06-10T06:14:42;6.60;;;4.85;;
9860;SDS011;4969;52.304;4.968;2023-06-10T06:17:09;8.00;;;5.63;;
9860;SDS011;4969;52.304;4.968;2023-06-10T06:19:36;6.13;;;5.50;;
9860;SDS011;4969;52.304;4.968;2023-06-10T06:22:03;6.43;;;5.70;;
9860;SDS011;4969;52.304;4.968;2023-06-10T06:24:30;6.93;;;5.43;;
9860;SDS011;4969;52.304;4.968;2023-06-10T06:26:57;6.47;;;5.45;;
9860;SDS011;4969;52.304;4.968;2023-06-10T06:29:25;6.43;;;5.20;;
9860;SDS011;4969;52.304;4.968;2023-06-10T06:31:51;6.32;;;5.72;;
9860;SDS011;4969;52.304;4.968;2023-06-10T06:34:18;8.38;;;5.60;;
9860;SDS011;4969;52.304;4.968;2023-06-10T06:36:44;7.13;;;5.90;;
9860;SDS011;4969;52.304;4.968;2023-06-10T06:39:11;7.43;;;5.47;;
9860;SDS011;4969;52.304;4.968;2023-06-10T06:41:38;6.05;;;5.32;;
9860;SDS011;4969;52.304;4.968;2023-06-10T06:44:05;8.77;;;6.13;;
9860;SDS011;4969;52.304;4.968;2023-06-10T06:46:33;6.57;;;5.20;;
9860;SDS011;4969;52.304;4.968;2023-06-10T06:49:00;6.03;;;5.10;;
9860;SDS011;4969;52.304;4.968;2023-06-10T06:51:26;7.55;;;5.10;;
9860;SDS011;4969;52.304;4.968;2023-06-10T06:53:53;9.75;;;5.80;;
9860;SDS011;4969;52.304;4.968;2023-06-10T06:56:23;7.53;;;5.55;;
9860;SDS011;4969;52.304;4.968;2023-06-10T06:58:50;8.00;;;5.65;;
9860;SDS011;4969;52.304;4.968;2023-06-10T07:01:16;10.02;;;5.72;;
9860;SDS011;4969;52.304;4.968;2023-06-10T07:03:44;8.07;;;6.00;;
9860;SDS011;4969;52.304;4.968;2023-06-10T07:06:11;7.57;;;6.18;;
9860;SDS011;4969;52.304;4.968;2023-06-10T07:08:38;5.82;;;5.00;;
9860;SDS011;4969;52.304;4.968;2023-06-10T07:11:05;7.20;;;5.68;;
9860;SDS011;4969;52.304;4.968;2023-06-10T07:13:31;7.95;;;6.03;;
9860;SDS011;4969;52.304;4.968;2023-06-10T07:15:58;6.82;;;5.93;;
9860;SDS011;4969;52.304;4.968;2023-06-10T07:18:25;9.80;;;5.28;;
9860;SDS011;4969;52.304;4.968;2023-06-10T07:20:53;10.88;;;6.03;;
9860;SDS011;4969;52.304;4.968;2023-06-10T07:23:19;6.82;;;5.53;;
9860;SDS011;4969;52.304;4.968;2023-06-10T07:25:46;8.23;;;5.75;;
9860;SDS011;4969;52.304;4.968;2023-06-10T07:28:12;7.00;;;5.22;;
9860;SDS011;4969;52.304;4.968;2023-06-10T07:30:39;10.85;;;5.60;;
9860;SDS011;4969;52.304;4.968;2023-06-10T07:33:06;7.82;;;5.65;;
9860;SDS011;4969;52.304;4.968;2023-06-10T07:35:32;12.80;;;6.30;;
9860;SDS011;4969;52.304;4.968;2023-06-10T07:38:00;8.07;;;6.20;;
9860;SDS011;4969;52.304;4.968;2023-06-10T07:40:27;8.07;;;5.53;;
9860;SDS011;4969;52.304;4.968;2023-06-10T07:42:54;7.95;;;5.47;;
9860;SDS011;4969;52.304;4.968;2023-06-10T07:45:21;7.18;;;5.55;;
9860;SDS011;4969;52.304;4.968;2023-06-10T07:47:48;8.50;;;5.32;;
9860;SDS011;4969;52.304;4.968;2023-06-10T07:50:15;10.88;;;5.43;;
9860;SDS011;4969;52.304;4.968;2023-06-10T07:52:42;6.93;;;5.57;;
9860;SDS011;4969;52.304;4.968;2023-06-10T07:55:10;6.97;;;4.97;;
9860;SDS011;4969;52.304;4.968;2023-06-10T07:57:36;6.38;;;4.90;;
9860;SDS011;4969;52.304;4.968;2023-06-10T08:00:04;10.80;;;5.15;;
9860;SDS011;4969;52.304;4.968;2023-06-10T08:02:31;9.45;;;5.72;;
9860;SDS011;4969;52.304;4.968;2023-06-10T08:04:58;8.02;;;5.22;;
9860;SDS011;4969;52.304;4.968;2023-06-10T08:07:24;6.72;;;6.00;;
9860;SDS011;4969;52.304;4.968;2023-06-10T08:09:51;6.28;;;5.28;;
9860;SDS011;4969;52.304;4.968;2023-06-10T08:12:19;7.68;;;6.00;;
9860;SDS011;4969;52.304;4.968;2023-06-10T08:14:46;9.23;;;5.38;;
9860;SDS011;4969;52.304;4.968;2023-06-10T08:17:12;6.28;;;5.30;;
9860;SDS011;4969;52.304;4.968;2023-06-10T08:19:39;5.95;;;5.35;;
9860;SDS011;4969;52.304;4.968;2023-06-10T08:22:06;7.32;;;6.13;;
9860;SDS011;4969;52.304;4.968;2023-06-10T08:24:32;10.38;;;5.53;;
9860;SDS011;4969;52.304;4.968;2023-06-10T08:26:59;9.13;;;5.25;;
9860;SDS011;4969;52.304;4.968;2023-06-10T08:29:27;12.55;;;6.28;;
9860;SDS011;4969;52.304;4.968;2023-06-10T08:31:54;8.00;;;5.75;;
9860;SDS011;4969;52.304;4.968;2023-06-10T08:34:21;8.35;;;5.70;;
9860;SDS011;4969;52.304;4.968;2023-06-10T08:36:48;8.30;;;5.85;;
9860;SDS011;4969;52.304;4.968;2023-06-10T08:39:18;8.18;;;5.25;;
9860;SDS011;4969;52.304;4.968;2023-06-10T08:41:51;8.38;;;5.50;;
9860;SDS011;4969;52.304;4.968;2023-06-10T08:44:28;7.65;;;5.63;;
9860;SDS011;4969;52.304;4.968;2023-06-10T08:46:56;9.90;;;6.18;;
9860;SDS011;4969;52.304;4.968;2023-06-10T08:49:26;7.43;;;5.68;;
9860;SDS011;4969;52.304;4.968;2023-06-10T08:51:58;6.75;;;6.05;;
9860;SDS011;4969;52.304;4.968;2023-06-10T08:54:27;7.90;;;5.90;;
9860;SDS011;4969;52.304;4.968;2023-06-10T08:56:57;9.60;;;5.97;;
9860;SDS011;4969;52.304;4.968;2023-06-10T08:59:28;8.15;;;6.38;;
9860;SDS011;4969;52.304;4.968;2023-06-10T09:01:55;7.38;;;5.88;;
9860;SDS011;4969;52.304;4.968;2023-06-10T09:04:22;9.75;;;6.18;;
9860;SDS011;4969;52.304;4.968;2023-06-10T09:06:51;6.95;;;5.85;;
9860;SDS011;4969;52.304;4.968;2023-06-10T09:09:20;6.90;;;6.20;;
9860;SDS011;4969;52.304;4.968;2023-06-10T09:11:48;8.90;;;5.30;;
9860;SDS011;4969;52.304;4.968;2023-06-10T09:14:15;7.63;;;6.00;;
9860;SDS011;4969;52.304;4.968;2023-06-10T09:16:43;7.05;;;5.57;;
9860;SDS011;4969;52.304;4.968;2023-06-10T09:19:11;6.25;;;5.65;;
9860;SDS011;4969;52.304;4.968;2023-06-10T09:21:39;8.88;;;6.10;;
9860;SDS011;4969;52.304;4.968;2023-06-10T09:24:05;6.32;;;5.30;;
9860;SDS011;4969;52.304;4.968;2023-06-10T09:26:32;8.00;;;6.05;;
9860;SDS011;4969;52.304;4.968;2023-06-10T09:29:02;9.00;;;5.97;;
9860;SDS011;4969;52.304;4.968;2023-06-10T09:31:30;6.50;;;5.90;;
9860;SDS011;4969;52.304;4.968;2023-06-10T09:34:05;8.52;;;6.63;;
9860;SDS011;4969;52.304;4.968;2023-06-10T09:36:33;7.13;;;6.07;;
9860;SDS011;4969;52.304;4.968;2023-06-10T09:38:59;6.80;;;6.05;;
9860;SDS011;4969;52.304;4.968;2023-06-10T09:41:31;7.38;;;6.35;;
9860;SDS011;4969;52.304;4.968;2023-06-10T09:43:58;9.43;;;7.20;;
9860;SDS011;4969;52.304;4.968;2023-06-10T09:46:25;8.38;;;6.10;;
9860;SDS011;4969;52.304;4.968;2023-06-10T09:48:57;8.82;;;6.35;;
9860;SDS011;4969;52.304;4.968;2023-06-10T09:51:26;7.15;;;6.07;;
9860;SDS011;4969;52.304;4.968;2023-06-10T09:53:53;8.77;;;5.68;;
9860;SDS011;4969;52.304;4.968;2023-06-10T09:56:20;7.20;;;5.95;;
9860;SDS011;4969;52.304;4.968;2023-06-10T09:58:49;7.38;;;5.80;;
9860;SDS011;4969;52.304;4.968;2023-06-10T10:01:19;7.50;;;6.10;;
9860;SDS011;4969;52.304;4.968;2023-06-10T10:03:45;9.13;;;5.93;;
9860;SDS011;4969;52.304;4.968;2023-06-10T10:06:13;8.85;;;5.50;;
9860;SDS011;4969;52.304;4.968;2023-06-10T10:08:42;8.23;;;5.47;;
9860;SDS011;4969;52.304;4.968;2023-06-10T10:11:09;5.90;;;5.25;;
9860;SDS011;4969;52.304;4.968;2023-06-10T10:13:36;6.72;;;6.03;;
9860;SDS011;4969;52.304;4.968;2023-06-10T10:16:04;7.43;;;5.55;;
9860;SDS011;4969;52.304;4.968;2023-06-10T10:18:36;7.18;;;6.32;;
9860;SDS011;4969;52.304;4.968;2023-06-10T10:21:09;5.68;;;5.20;;
9860;SDS011;4969;52.304;4.968;2023-06-10T10:23:39;5.75;;;4.97;;
9860;SDS011;4969;52.304;4.968;2023-06-10T10:26:10;6.25;;;5.07;;
9860;SDS011;4969;52.304;4.968;2023-06-10T10:28:40;6.30;;;5.25;;
9860;SDS011;4969;52.304;4.968;2023-06-10T10:31:12;10.48;;;5.18;;
9860;SDS011;4969;52.304;4.968;2023-06-10T10:33:45;7.05;;;5.32;;
9860;SDS011;4969;52.304;4.968;2023-06-10T10:36:18;10.20;;;5.80;;
9860;SDS011;4969;52.304;4.968;2023-06-10T10:38:47;6.97;;;5.80;;
9860;SDS011;4969;52.304;4.968;2023-06-10T10:41:14;5.95;;;5.25;;
9860;SDS011;4969;52.304;4.968;2023-06-10T10:43:41;7.18;;;5.18;;
9860;SDS011;4969;52.304;4.968;2023-06-10T10:46:11;10.82;;;5.72;;
9860;SDS011;4969;52.304;4.968;2023-06-10T10:48:39;6.32;;;5.35;;
9860;SDS011;4969;52.304;4.968;2023-06-10T10:51:06;9.38;;;6.25;;
9860;SDS011;4969;52.304;4.968;2023-06-10T10:53:33;8.48;;;5.70;;
9860;SDS011;4969;52.304;4.968;2023-06-10T10:56:01;8.52;;;5.40;;
9860;SDS011;4969;52.304;4.968;2023-06-10T10:58:31;8.38;;;5.20;;
9860;SDS011;4969;52.304;4.968;2023-06-10T11:00:58;6.63;;;5.60;;
9860;SDS011;4969;52.304;4.968;2023-06-10T11:03:27;8.73;;;5.10;;
9860;SDS011;4969;52.304;4.968;2023-06-10T11:05:56;8.60;;;5.22;;
9860;SDS011;4969;52.304;4.968;2023-06-10T11:11:20;6.60;;;4.85;;
9860;SDS011;4969;52.304;4.968;2023-06-10T11:14:06;6.03;;;5.10;;
9860;SDS011;4969;52.304;4.968;2023-06-10T11:16:41;7.22;;;5.65;;
9860;SDS011;4969;52.304;4.968;2023-06-10T11:19:08;6.20;;;5.20;;
9860;SDS011;4969;52.304;4.968;2023-06-10T11:21:57;6.38;;;5.20;;
9860;SDS011;4969;52.304;4.968;2023-06-10T11:24:24;6.07;;;4.82;;
9860;SDS011;4969;52.304;4.968;2023-06-10T11:26:53;7.45;;;4.68;;
9860;SDS011;4969;52.304;4.968;2023-06-10T11:29:20;6.40;;;4.68;;
9860;SDS011;4969;52.304;4.968;2023-06-10T11:31:50;8.88;;;5.00;;
9860;SDS011;4969;52.304;4.968;2023-06-10T11:34:23;5.47;;;4.20;;
9860;SDS011;4969;52.304;4.968;2023-06-10T11:36:52;5.30;;;4.80;;
9860;SDS011;4969;52.304;4.968;2023-06-10T11:39:20;5.82;;;4.60;;
9860;SDS011;4969;52.304;4.968;2023-06-10T11:41:48;7.03;;;4.55;;
9860;SDS011;4969;52.304;4.968;2023-06-10T11:44:19;6.47;;;4.68;;
9860;SDS011;4969;52.304;4.968;2023-06-10T11:46:47;5.50;;;4.03;;
9860;SDS011;4969;52.304;4.968;2023-06-10T11:49:14;6.75;;;4.20;;
9860;SDS011;4969;52.304;4.968;2023-06-10T11:51:41;7.30;;;4.75;;
9860;SDS011;4969;52.304;4.968;2023-06-10T11:54:14;5.05;;;4.55;;
9860;SDS011;4969;52.304;4.968;2023-06-10T11:56:42;6.72;;;4.55;;
9860;SDS011;4969;52.304;4.968;2023-06-10T11:59:08;5.95;;;4.82;;
9860;SDS011;4969;52.304;4.968;2023-06-10T12:01:37;6.40;;;4.57;;
9860;SDS011;4969;52.304;4.968;2023-06-10T12:04:08;5.32;;;4.68;;
9860;SDS011;4969;52.304;4.968;2023-06-10T12:06:39;5.80;;;4.40;;
9860;SDS011;4969;52.304;4.968;2023-06-10T12:09:13;8.15;;;5.07;;
9860;SDS011;4969;52.304;4.968;2023-06-10T12:11:40;5.38;;;3.78;;
9860;SDS011;4969;52.304;4.968;2023-06-10T12:14:08;6.85;;;4.15;;
9860;SDS011;4969;52.304;4.968;2023-06-10T12:16:36;5.68;;;4.60;;
9860;SDS011;4969;52.304;4.968;2023-06-10T12:19:03;5.55;;;4.55;;
9860;SDS011;4969;52.304;4.968;2023-06-10T12:21:32;7.35;;;4.43;;
9860;SDS011;4969;52.304;4.968;2023-06-10T12:24:08;6.75;;;4.75;;
9860;SDS011;4969;52.304;4.968;2023-06-10T12:26:36;5.32;;;3.92;;
9860;SDS011;4969;52.304;4.968;2023-06-10T12:29:18;5.68;;;4.80;;
9860;SDS011;4969;52.304;4.968;2023-06-10T12:31:57;5.40;;;4.60;;
9860;SDS011;4969;52.304;4.968;2023-06-10T12:37:10;5.25;;;4.22;;
9860;SDS011;4969;52.304;4.968;2023-06-10T12:39:39;7.60;;;4.22;;
9860;SDS011;4969;52.304;4.968;2023-06-10T12:42:08;4.72;;;4.22;;
9860;SDS011;4969;52.304;4.968;2023-06-10T12:44:35;5.30;;;4.80;;
9860;SDS011;4969;52.304;4.968;2023-06-10T12:47:10;5.03;;;4.60;;
9860;SDS011;4969;52.304;4.968;2023-06-10T12:49:38;5.18;;;4.68;;
9860;SDS011;4969;52.304;4.968;2023-06-10T12:52:05;6.43;;;4.30;;
9860;SDS011;4969;52.304;4.968;2023-06-10T12:54:32;4.53;;;4.10;;
9860;SDS011;4969;52.304;4.968;2023-06-10T12:57:00;6.03;;;4.63;;
9860;SDS011;4969;52.304;4.968;2023-06-10T12:59:27;6.25;;;4.47;;
9860;SDS011;4969;52.304;4.968;2023-06-10T13:01:54;6.35;;;4.78;;
9860;SDS011;4969;52.304;4.968;2023-06-10T13:04:22;6.70;;;4.70;;
9860;SDS011;4969;52.304;4.968;2023-06-10T13:06:49;4.95;;;4.38;;
9860;SDS011;4969;52.304;4.968;2023-06-10T13:09:15;6.20;;;4.30;;
9860;SDS011;4969;52.304;4.968;2023-06-10T13:11:42;6.10;;;4.80;;
9860;SDS011;4969;52.304;4.968;2023-06-10T13:14:09;4.95;;;4.32;;
9860;SDS011;4969;52.304;4.968;2023-06-10T13:16:36;5.50;;;4.65;;
9860;SDS011;4969;52.304;4.968;2023-06-10T13:19:04;6.78;;;4.65;;
9860;SDS011;4969;52.304;4.968;2023-06-10T13:21:33;5.32;;;4.80;;
9860;SDS011;4969;52.304;4.968;2023-06-10T13:24:00;6.10;;;5.05;;
9860;SDS011;4969;52.304;4.968;2023-06-10T13:26:26;8.35;;;4.82;;
9860;SDS011;4969;52.304;4.968;2023-06-10T13:28:53;4.70;;;4.30;;
9860;SDS011;4969;52.304;4.968;2023-06-10T13:31:20;7.10;;;4.95;;
9860;SDS011;4969;52.304;4.968;2023-06-10T13:33:47;4.93;;;4.15;;
9860;SDS011;4969;52.304;4.968;2023-06-10T13:36:13;8.00;;;5.05;;
9860;SDS011;4969;52.304;4.968;2023-06-10T13:38:41;4.60;;;3.92;;
9860;SDS011;4969;52.304;4.968;2023-06-10T13:41:08;7.18;;;4.93;;
9860;SDS011;4969;52.304;4.968;2023-06-10T13:43:35;5.35;;;4.30;;
9860;SDS011;4969;52.304;4.968;2023-06-10T13:46:01;6.43;;;4.80;;
9860;SDS011;4969;52.304;4.968;2023-06-10T13:48:28;8.52;;;5.10;;
9860;SDS011;4969;52.304;4.968;2023-06-10T13:50:55;5.00;;;4.50;;
9860;SDS011;4969;52.304;4.968;2023-06-10T13:53:21;7.60;;;5.00;;
9860;SDS011;4969;52.304;4.968;2023-06-10T13:55:49;9.80;;;4.60;;
9860;SDS011;4969;52.304;4.968;2023-06-10T13:58:16;7.18;;;4.22;;
9860;SDS011;4969;52.304;4.968;2023-06-10T14:00:43;7.28;;;5.07;;
9860;SDS011;4969;52.304;4.968;2023-06-10T14:03:09;5.20;;;4.70;;
9860;SDS011;4969;52.304;4.968;2023-06-10T14:05:36;6.88;;;4.97;;
9860;SDS011;4969;52.304;4.968;2023-06-10T14:08:03;7.95;;;4.97;;
9860;SDS011;4969;52.304;4.968;2023-06-10T14:10:29;7.15;;;4.70;;
9860;SDS011;4969;52.304;4.968;2023-06-10T14:12:57;6.32;;;4.43;;
9860;SDS011;4969;52.304;4.968;2023-06-10T14:15:25;5.10;;;4.60;;
9860;SDS011;4969;52.304;4.968;2023-06-10T14:17:52;7.18;;;4.72;;
9860;SDS011;4969;52.304;4.968;2023-06-10T14:20:18;6.60;;;4.75;;
9860;SDS011;4969;52.304;4.968;2023-06-10T14:22:45;7.70;;;4.43;;
9860;SDS011;4969;52.304;4.968;2023-06-10T14:25:11;5.35;;;4.75;;
9860;SDS011;4969;52.304;4.968;2023-06-10T14:27:38;5.30;;;3.97;;
9860;SDS011;4969;52.304;4.968;2023-06-10T14:30:06;4.60;;;4.20;;
9860;SDS011;4969;52.304;4.968;2023-06-10T14:32:33;5.75;;;4.30;;
9860;SDS011;4969;52.304;4.968;2023-06-10T14:35:00;6.00;;;4.15;;
9860;SDS011;4969;52.304;4.968;2023-06-10T14:37:27;4.43;;;4.13;;
9860;SDS011;4969;52.304;4.968;2023-06-10T14:39:53;5.18;;;4.43;;
9860;SDS011;4969;52.304;4.968;2023-06-10T14:42:20;4.30;;;4.00;;
9860;SDS011;4969;52.304;4.968;2023-06-10T14:44:46;5.80;;;4.10;;
9860;SDS011;4969;52.304;4.968;2023-06-10T14:47:15;6.90;;;3.97;;
9860;SDS011;4969;52.304;4.968;2023-06-10T14:49:42;5.95;;;4.15;;
9860;SDS011;4969;52.304;4.968;2023-06-10T14:52:09;6.28;;;3.95;;
9860;SDS011;4969;52.304;4.968;2023-06-10T14:54:36;7.32;;;4.32;;
9860;SDS011;4969;52.304;4.968;2023-06-10T14:57:02;5.63;;;4.10;;
9860;SDS011;4969;52.304;4.968;2023-06-10T14:59:30;5.57;;;3.72;;
9860;SDS011;4969;52.304;4.968;2023-06-10T15:01:57;5.90;;;4.05;;
9860;SDS011;4969;52.304;4.968;2023-06-10T15:04:27;6.65;;;4.32;;
9860;SDS011;4969;52.304;4.968;2023-06-10T15:06:53;6.82;;;4.30;;
9860;SDS011;4969;52.304;4.968;2023-06-10T15:09:20;7.47;;;3.78;;
9860;SDS011;4969;52.304;4.968;2023-06-10T15:11:47;6.00;;;3.92;;
9860;SDS011;4969;52.304;4.968;2023-06-10T15:14:13;4.35;;;3.90;;
9860;SDS011;4969;52.304;4.968;2023-06-10T15:16:40;4.45;;;4.03;;
9860;SDS011;4969;52.304;4.968;2023-06-10T15:19:07;3.85;;;3.55;;
9860;SDS011;4969;52.304;4.968;2023-06-10T15:21:36;5.28;;;4.07;;
9860;SDS011;4969;52.304;4.968;2023-06-10T15:24:02;5.55;;;4.80;;